• Join FlightAware (Why Join?)
  • Login
  • US Flag GB Flag 
07:27 EDT


 

Airport Tracker/Info


-or-


 

Live Flight TrackerFlight Track Log ✈ USC105 ✈ 16-Apr-2013 ✈ KBKL - KYIP

Flight Track Log - Related Links

Times and Time Zones

All times are in EDT time to prevent confusion due to time zone crossing. See the USC105 flight status page for this flight to view local times or setup timezone preferences in your user account.

Time Position Orientation Groundspeed Altitude Reporting Facility
EDT Latitude Longitude Course Direction KTS MPH feet Rate Location/Type
23:20 41.5228 -81.7092 321° Northwest 100 115 1,400  Level Cleveland Center
23:21 41.5497 -81.7317 328° Northwest 128 147 2,400 1,020 Climbing Cleveland Center
23:22 41.5619 -81.7708 293° West 129 148 3,400 1,080 Climbing Cleveland Center
23:23 41.5781 -81.8128 297° West 125 144 4,500 1,140 Climbing Cleveland Center
23:24 41.5881 -81.8519 289° West 112 129 5,700 720 Climbing Cleveland Center
23:25 41.6044 -81.8939 298° West 132 152 6,000 120 Climbing Cleveland Center
23:26 41.6183 -81.9442 290° West 153 176 6,000  Level Cleveland Center
23:27 41.6364 -82.0000 293° West 158 182 6,000  Level Cleveland Center
23:28 41.6567 -82.0561 296° West 160 184 6,000  Level Cleveland Center
23:29 41.6725 -82.1119 291° West 162 186 6,000  Level Cleveland Center
23:30 41.6906 -82.1625 296° West 162 186 6,000 -60 Level Cleveland Center
23:31 41.7086 -82.2186 293° West 161 185 5,900 -60 Descending Cleveland Center
23:32 41.7264 -82.2775 292° West 163 188 5,900  Level Cleveland Center
23:33 41.7467 -82.3253 300° West 164 189 6,000  Climbing Cleveland Center
23:34 41.7664 -82.3928 291° West 166 191 6,000  Level Cleveland Center
23:35 41.7864 -82.4461 297° West 165 190 6,000  Level Cleveland Center
23:36 41.8042 -82.5053 292° West 164 189 6,000  Level Cleveland Center
23:37 41.8219 -82.5642 292° West 165 190 6,000  Level Cleveland Center
23:38 41.8419 -82.6178 297° West 164 189 6,000  Level Cleveland Center
23:39 41.8681 -82.6689 304° West 165 190 6,000  Level Cleveland Center
23:40 41.8942 -82.7144 308° West 163 188 6,000  Level Cleveland Center
23:41 41.9225 -82.7656 307° West 164 189 6,000  Level Cleveland Center
23:42 41.9508 -82.8167 307° West 166 191 6,000  Level Cleveland Center
23:43 41.9850 -82.8739 309° West 168 193 6,000  Level Cleveland Center
23:44 42.0111 -82.9222 306° West 170 196 6,000  Level Cleveland Center
23:45 42.0392 -82.9736 306° West 172 198 6,000  Level Cleveland Center
23:46 42.0675 -83.0222 308° West 174 200 6,000 -240 Level Cleveland Center
23:47 42.0975 -83.0767 307° West 183 211 5,600 -480 Descending Cleveland Center
23:48 42.1275 -83.1308 307° West 196 226 5,100 -300 Descending Cleveland Center
23:49 42.1578 -83.1853 307° West 176 203 5,000 -60 Descending Cleveland Center
23:50 42.1897 -83.2428 307° West 169 194 5,000  Level Cleveland Center
23:51 42.2156 -83.2944 304° West 164 189 5,000 -420 Level Cleveland Center
23:52 42.2417 -83.3431 306° West 186 214 4,200 -960 Descending Cleveland Center
23:53 42.2736 -83.3978 308° West 192 221 3,200 -900 Descending Cleveland Center
23:54 42.2844 -83.4628 283° West 166 191 2,400 -900 Descending Cleveland Center
23:55 42.2583 -83.5011 227° Southwest 136 157 1,400 -1,140 Descending Cleveland Center
23:57 42.2333 -83.5167 270° West  Level FlightAware Approximate
00:04 42.2393 -83.5310 270° West  Level Estimated
00:05 42.2393 -83.5310 270° West  Level Estimated